createdAt,value
2018-03-30T00:01:17.786Z,21.43
2018-03-30T00:03:45.191Z,21.20
2018-03-30T00:06:12.555Z,21.37
2018-03-30T00:08:39.920Z,21.90
2018-03-30T00:11:07.322Z,21.90
2018-03-30T00:13:34.693Z,21.33
2018-03-30T00:16:02.056Z,22.33
2018-03-30T00:18:29.457Z,21.67
2018-03-30T00:20:56.929Z,21.37
2018-03-30T00:23:24.290Z,21.70
2018-03-30T00:25:51.689Z,19.93
2018-03-30T00:28:19.054Z,22.17
2018-03-30T00:30:46.408Z,20.90
2018-03-30T00:33:13.816Z,21.40
2018-03-30T00:35:41.169Z,21.90
2018-03-30T00:38:08.526Z,21.10
2018-03-30T00:40:35.925Z,21.10
2018-03-30T00:43:03.390Z,21.23
2018-03-30T00:45:30.754Z,22.13
2018-03-30T00:47:58.143Z,23.30
2018-03-30T00:50:25.497Z,21.93
2018-03-30T00:52:52.852Z,21.43
2018-03-30T00:55:20.366Z,24.33
2018-03-30T00:57:47.738Z,23.47
2018-03-30T01:00:15.110Z,23.03
2018-03-30T01:02:42.530Z,22.83
2018-03-30T01:05:09.893Z,23.20
2018-03-30T01:07:37.286Z,23.07
2018-03-30T01:10:04.703Z,24.13
2018-03-30T01:12:35.217Z,23.07
2018-03-30T01:15:02.569Z,26.53
2018-03-30T01:17:29.985Z,23.50
2018-03-30T01:19:57.333Z,22.33
2018-03-30T01:22:24.740Z,25.00
2018-03-30T01:24:52.208Z,24.70
2018-03-30T01:27:19.565Z,25.17
2018-03-30T01:29:46.925Z,24.73
2018-03-30T01:32:14.318Z,25.00
2018-03-30T01:34:41.675Z,25.43
2018-03-30T01:37:09.054Z,24.57
2018-03-30T01:39:36.470Z,25.83
2018-03-30T01:42:03.840Z,25.23
2018-03-30T01:44:31.197Z,26.27
2018-03-30T01:46:58.601Z,27.70
2018-03-30T01:49:25.956Z,27.50
2018-03-30T01:51:53.342Z,27.03
2018-03-30T01:54:20.730Z,26.57
2018-03-30T01:56:48.102Z,27.13
2018-03-30T01:59:15.461Z,26.70
2018-03-30T02:01:42.847Z,25.77
2018-03-30T02:04:10.210Z,27.60
2018-03-30T02:06:37.573Z,26.40
2018-03-30T02:09:04.981Z,25.80
2018-03-30T02:11:32.350Z,29.20
2018-03-30T02:13:59.764Z,29.23
2018-03-30T02:16:27.182Z,30.33
2018-03-30T02:18:54.533Z,28.70
2018-03-30T02:21:21.932Z,27.53
2018-03-30T02:23:49.350Z,28.37
2018-03-30T02:26:16.707Z,27.80
2018-03-30T02:28:44.061Z,27.77
2018-03-30T02:31:11.462Z,29.67
2018-03-30T02:33:38.842Z,27.17
2018-03-30T02:36:06.204Z,29.90
2018-03-30T02:38:33.597Z,30.50
2018-03-30T02:41:04.086Z,29.03
2018-03-30T02:43:31.460Z,30.10
2018-03-30T02:45:58.858Z,28.83
2018-03-30T02:48:26.213Z,28.47
2018-03-30T02:50:53.590Z,30.37
2018-03-30T02:53:20.998Z,28.40
2018-03-30T02:55:48.350Z,29.30
2018-03-30T02:58:15.714Z,30.87
2018-03-30T03:00:43.107Z,30.07
2018-03-30T03:03:10.470Z,29.30
2018-03-30T03:05:37.832Z,30.70
2018-03-30T03:08:05.209Z,31.00
2018-03-30T03:10:32.622Z,32.00
2018-03-30T03:12:59.978Z,32.03
2018-03-30T03:15:27.331Z,32.13
2018-03-30T03:17:54.746Z,32.30
2018-03-30T03:20:22.102Z,32.53
2018-03-30T03:22:49.457Z,30.73
2018-03-30T03:25:16.870Z,31.83
2018-03-30T03:27:44.240Z,28.93
2018-03-30T03:30:11.611Z,32.47
2018-03-30T03:32:39.004Z,29.40
2018-03-30T03:35:06.366Z,31.03
2018-03-30T03:37:33.729Z,29.50
2018-03-30T03:40:01.122Z,31.50
2018-03-30T03:42:28.482Z,30.23
2018-03-30T03:44:55.837Z,31.03
2018-03-30T03:47:23.247Z,28.23
2018-03-30T03:49:50.618Z,28.80
2018-03-30T03:52:17.988Z,28.03
2018-03-30T03:54:45.361Z,28.50
2018-03-30T03:57:12.713Z,28.40
2018-03-30T03:59:40.113Z,28.17
2018-03-30T04:02:07.479Z,28.00
2018-03-30T04:04:34.841Z,30.57
2018-03-30T04:07:02.234Z,28.10
2018-03-30T04:09:29.619Z,30.27
2018-03-30T04:11:56.974Z,27.30
2018-03-30T04:14:24.362Z,28.10
2018-03-30T04:16:52.718Z,28.87
2018-03-30T04:19:20.080Z,26.83
2018-03-30T04:21:47.481Z,27.63
2018-03-30T04:24:14.849Z,27.97
2018-03-30T04:26:42.211Z,25.07
2018-03-30T04:29:09.640Z,25.00
2018-03-30T04:31:37.015Z,27.33
2018-03-30T04:34:04.382Z,25.97
2018-03-30T04:36:31.773Z,27.43
2018-03-30T04:38:59.133Z,27.40
2018-03-30T04:41:26.518Z,25.60
2018-03-30T04:43:53.924Z,27.17
2018-03-30T04:46:21.282Z,25.53
2018-03-30T04:48:48.649Z,26.40
2018-03-30T04:51:16.057Z,28.23
2018-03-30T04:53:43.418Z,26.97
2018-03-30T04:56:11.408Z,29.10
2018-03-30T04:58:38.992Z,30.53
2018-03-30T05:01:06.344Z,30.57
2018-03-30T05:03:33.705Z,30.63
2018-03-30T05:06:01.106Z,28.17
2018-03-30T05:08:28.464Z,30.07
2018-03-30T05:10:55.821Z,27.77
2018-03-30T05:13:23.208Z,28.20
2018-03-30T05:15:51.277Z,28.60
2018-03-30T05:18:18.629Z,29.93
2018-03-30T05:20:46.025Z,27.57
2018-03-30T05:23:13.388Z,26.50
2018-03-30T05:25:40.751Z,28.50
2018-03-30T05:28:08.158Z,28.10
2018-03-30T05:30:35.523Z,27.90
2018-03-30T05:33:02.878Z,26.80
2018-03-30T05:35:30.274Z,28.50
2018-03-30T05:37:57.629Z,26.33
2018-03-30T05:40:24.985Z,27.83
2018-03-30T05:42:52.372Z,26.63
2018-03-30T05:45:19.772Z,27.20
2018-03-30T05:47:47.138Z,25.93
2018-03-30T05:50:14.757Z,24.47
2018-03-30T05:52:42.769Z,26.17
2018-03-30T05:55:10.226Z,25.63
2018-03-30T05:57:37.581Z,29.73
2018-03-30T06:00:05.834Z,27.47
2018-03-30T06:02:33.187Z,27.30
2018-03-30T06:05:00.537Z,28.67
2018-03-30T06:07:27.933Z,29.00
2018-03-30T06:09:55.325Z,28.23
2018-03-30T06:12:22.681Z,29.20
2018-03-30T06:14:50.037Z,27.80
2018-03-30T06:17:17.431Z,30.17
2018-03-30T06:19:44.788Z,30.00
2018-03-30T06:22:12.181Z,27.43
2018-03-30T06:24:39.548Z,27.70
2018-03-30T06:27:06.902Z,27.00
2018-03-30T06:29:34.298Z,28.13
2018-03-30T06:32:01.681Z,26.90
2018-03-30T06:34:29.040Z,25.90
2018-03-30T06:36:56.433Z,24.57
2018-03-30T06:39:23.799Z,23.47
2018-03-30T06:41:51.193Z,21.40
2018-03-30T06:44:18.548Z,19.93
2018-03-30T06:46:45.901Z,20.33
2018-03-30T06:49:13.310Z,19.27
2018-03-30T06:51:40.669Z,18.77
2018-03-30T06:54:08.030Z,18.40
2018-03-30T06:56:35.426Z,18.40
2018-03-30T06:59:02.862Z,19.50
2018-03-30T07:01:30.364Z,18.50
2018-03-30T07:03:57.774Z,17.00
2018-03-30T07:06:25.165Z,18.17
2018-03-30T07:08:52.542Z,16.13
2018-03-30T07:11:19.937Z,15.90
2018-03-30T07:13:48.083Z,16.80
2018-03-30T07:16:15.490Z,17.87
2018-03-30T07:18:42.850Z,16.70
2018-03-30T07:30:57.773Z,14.93
2018-03-30T07:33:25.129Z,14.80
2018-03-30T07:35:52.486Z,15.00
2018-03-30T07:38:19.881Z,14.20
2018-03-30T07:40:47.311Z,14.33
2018-03-30T07:43:14.715Z,14.37
2018-03-30T07:45:42.086Z,13.80
2018-03-30T07:48:09.449Z,14.80
2018-03-30T07:50:36.869Z,15.10
2018-03-30T07:53:04.230Z,14.47
2018-03-30T07:55:31.589Z,13.23
2018-03-30T07:57:59.001Z,14.87
2018-03-30T08:00:26.358Z,13.77
2018-03-30T08:02:53.725Z,13.30
2018-03-30T08:05:21.115Z,13.33
2018-03-30T08:07:48.507Z,14.00
2018-03-30T08:10:15.861Z,14.10
2018-03-30T08:12:43.260Z,14.30
2018-03-30T08:15:10.642Z,14.13
2018-03-30T08:17:38.002Z,14.33
2018-03-30T08:20:05.393Z,14.37
2018-03-30T08:22:32.828Z,13.90
2018-03-30T08:25:00.158Z,13.43
2018-03-30T08:27:27.566Z,14.47
2018-03-30T08:29:54.957Z,14.07
2018-03-30T08:32:22.329Z,15.37
2018-03-30T08:34:49.732Z,15.10
2018-03-30T08:37:17.103Z,14.03
2018-03-30T08:39:44.464Z,15.43
2018-03-30T08:42:11.845Z,15.97
2018-03-30T08:44:39.229Z,16.27
2018-03-30T08:47:06.637Z,16.10
2018-03-30T08:49:34.001Z,15.53
2018-03-30T08:52:01.372Z,14.77
2018-03-30T08:54:28.765Z,14.53
2018-03-30T08:56:56.125Z,14.70
2018-03-30T08:59:23.513Z,16.33
2018-03-30T09:01:50.975Z,15.63
2018-03-30T09:04:18.357Z,15.80
2018-03-30T09:06:45.766Z,15.47
2018-03-30T09:09:13.129Z,17.30
2018-03-30T09:11:40.489Z,17.00
2018-03-30T09:14:07.870Z,16.47
2018-03-30T09:16:35.230Z,16.77
2018-03-30T09:19:02.617Z,15.83
2018-03-30T09:21:29.986Z,15.80
2018-03-30T09:23:57.379Z,16.20
2018-03-30T09:26:24.733Z,15.77
2018-03-30T09:28:52.089Z,16.83
2018-03-30T09:31:19.497Z,16.33
2018-03-30T09:33:46.861Z,16.70
2018-03-30T09:36:14.329Z,15.17
2018-03-30T09:38:41.708Z,15.00
2018-03-30T09:41:09.089Z,15.90
2018-03-30T09:43:36.443Z,16.30
2018-03-30T09:46:03.935Z,14.90
2018-03-30T09:48:31.309Z,14.53
2018-03-30T09:50:59.422Z,14.73
2018-03-30T09:53:26.805Z,14.87
2018-03-30T09:55:54.165Z,14.77
2018-03-30T09:58:21.549Z,13.70
2018-03-30T10:00:49.849Z,14.10
2018-03-30T10:03:17.216Z,13.90
2018-03-30T10:05:45.156Z,14.20
2018-03-30T10:08:12.517Z,14.27
2018-03-30T10:10:39.884Z,13.73
2018-03-30T10:13:07.269Z,14.30
2018-03-30T10:15:34.635Z,15.13
2018-03-30T10:18:02.045Z,13.70
2018-03-30T10:20:29.401Z,15.33
2018-03-30T10:22:56.753Z,14.67
2018-03-30T10:25:24.158Z,13.70
2018-03-30T10:27:51.526Z,14.03
2018-03-30T10:30:19.094Z,14.00
2018-03-30T10:32:46.461Z,14.27
2018-03-30T10:35:13.821Z,14.63
2018-03-30T10:37:41.229Z,15.27
2018-03-30T10:40:08.605Z,14.37
2018-03-30T10:42:35.974Z,14.00
2018-03-30T10:45:03.352Z,15.60
2018-03-30T10:47:30.705Z,15.80
2018-03-30T10:49:58.116Z,15.23
2018-03-30T10:52:25.513Z,15.30
2018-03-30T10:54:52.894Z,14.30
2018-03-30T10:57:20.331Z,14.97
2018-03-30T10:59:47.695Z,16.20
2018-03-30T11:02:15.065Z,24.07
2018-03-30T11:04:42.473Z,15.60
2018-03-30T11:07:09.834Z,15.77
2018-03-30T11:09:37.211Z,15.90
2018-03-30T11:12:04.617Z,15.77
2018-03-30T11:14:31.969Z,16.63
2018-03-30T11:16:59.354Z,14.70
2018-03-30T11:19:26.997Z,16.40
2018-03-30T11:21:54.411Z,15.73
2018-03-30T11:24:21.768Z,16.20
2018-03-30T11:26:49.164Z,15.40
2018-03-30T11:29:16.561Z,14.30
2018-03-30T11:31:43.929Z,15.53
2018-03-30T11:34:11.292Z,15.20
2018-03-30T11:36:38.702Z,15.03
2018-03-30T11:39:06.882Z,14.40
2018-03-30T11:41:34.245Z,15.17
2018-03-30T11:44:02.227Z,15.30
2018-03-30T11:46:29.585Z,16.30
2018-03-30T11:48:56.965Z,14.23
2018-03-30T11:51:24.349Z,15.20
2018-03-30T11:53:51.738Z,15.50
2018-03-30T11:56:19.093Z,15.67
2018-03-30T11:58:46.446Z,15.33
2018-03-30T12:01:13.862Z,14.87
2018-03-30T12:03:41.218Z,14.97
2018-03-30T12:06:08.569Z,15.17
2018-03-30T12:08:36.124Z,14.57
2018-03-30T12:11:03.517Z,16.17
2018-03-30T12:13:30.899Z,15.00
2018-03-30T12:15:58.306Z,15.43
2018-03-30T12:18:25.669Z,14.00
2018-03-30T12:20:53.081Z,14.90
2018-03-30T12:23:23.772Z,14.87
2018-03-30T12:25:51.133Z,14.00
2018-03-30T12:28:18.534Z,14.50
2018-03-30T12:30:45.894Z,14.87
2018-03-30T12:33:13.250Z,14.47
2018-03-30T12:35:40.658Z,14.90
2018-03-30T12:38:08.038Z,14.60
2018-03-30T12:40:35.413Z,13.23
2018-03-30T12:43:02.879Z,13.93
2018-03-30T12:45:30.283Z,14.10
2018-03-30T12:47:57.634Z,13.03
2018-03-30T12:50:25.028Z,13.70
2018-03-30T12:52:52.387Z,13.17
2018-03-30T12:55:19.741Z,13.60
2018-03-30T12:57:47.157Z,12.93
2018-03-30T13:00:14.554Z,12.80
2018-03-30T13:02:41.952Z,12.77
2018-03-30T13:05:09.371Z,12.40
2018-03-30T13:07:36.744Z,12.50
2018-03-30T13:10:04.137Z,12.47
2018-03-30T13:12:31.533Z,12.95
2018-03-30T13:14:58.905Z,13.30
2018-03-30T13:17:26.260Z,12.77
2018-03-30T13:19:53.637Z,13.07
2018-03-30T13:22:21.052Z,12.83
2018-03-30T13:24:48.407Z,13.20
2018-03-30T13:27:15.757Z,12.77
2018-03-30T13:29:43.138Z,12.50
2018-03-30T13:32:10.532Z,12.80
2018-03-30T13:34:37.919Z,12.70
2018-03-30T13:37:05.280Z,12.40
2018-03-30T13:39:32.685Z,12.37
2018-03-30T13:42:00.063Z,12.10
2018-03-30T13:44:27.433Z,12.50
2018-03-30T13:46:54.848Z,12.27
2018-03-30T13:49:22.212Z,11.93
2018-03-30T13:51:50.334Z,13.27
2018-03-30T13:54:28.543Z,15.00
2018-03-30T13:56:58.868Z,12.30
2018-03-30T13:59:27.146Z,11.27
2018-03-30T14:01:56.419Z,12.25
2018-03-30T14:04:28.673Z,10.83
2018-03-30T14:07:07.842Z,11.83
2018-03-30T14:09:36.018Z,17.23
2018-03-30T14:12:04.032Z,20.37
2018-03-30T14:14:31.441Z,25.10
2018-03-30T14:16:59.492Z,15.60
2018-03-30T14:19:27.572Z,19.80
2018-03-30T14:21:58.781Z,13.93
2018-03-30T14:24:36.958Z,13.13
2018-03-30T14:27:05.106Z,15.75
2018-03-30T14:29:32.500Z,14.13
2018-03-30T14:32:05.666Z,15.10
2018-03-30T14:34:33.025Z,14.90
2018-03-30T14:37:03.348Z,13.65
2018-03-30T14:46:53.926Z,15.63
2018-03-30T14:49:22.077Z,47.95
2018-03-30T14:51:53.187Z,29.87
2018-03-30T14:54:21.329Z,17.40
2018-03-30T14:56:49.405Z,15.87
2018-03-30T14:59:22.760Z,14.10
2018-03-30T15:01:51.006Z,14.10
2018-03-30T15:04:23.300Z,13.80
2018-03-30T15:06:50.696Z,13.55
2018-03-30T15:09:19.041Z,13.70
2018-03-30T15:11:57.177Z,14.37
2018-03-30T15:14:28.525Z,15.03
2018-03-30T15:16:58.705Z,13.60
2018-03-30T15:22:28.977Z,13.90
2018-03-30T15:25:12.061Z,14.70
2018-03-30T15:27:41.129Z,14.17
2018-03-30T15:30:09.085Z,14.80
2018-03-30T15:32:38.375Z,15.00
2018-03-30T15:35:05.733Z,14.63
2018-03-30T15:37:33.126Z,14.50
2018-03-30T15:40:02.250Z,13.75
2018-03-30T15:42:29.614Z,15.20
2018-03-30T15:44:57.929Z,14.50
2018-03-30T15:47:25.282Z,13.30
2018-03-30T15:49:54.361Z,14.70
2018-03-30T15:52:22.533Z,13.57
2018-03-30T15:54:49.907Z,14.20
2018-03-30T15:57:17.272Z,14.13
2018-03-30T15:59:44.662Z,14.10
2018-03-30T16:02:12.069Z,14.33
2018-03-30T16:04:39.458Z,14.23
2018-03-30T16:07:06.866Z,14.73
2018-03-30T16:09:40.252Z,15.20
2018-03-30T16:14:34.556Z,14.80
2018-03-30T16:17:02.025Z,13.13
2018-03-30T16:19:29.158Z,14.70
2018-03-30T16:21:56.278Z,14.00
2018-03-30T16:24:23.397Z,14.23
2018-03-30T16:26:50.534Z,13.67
2018-03-30T16:29:17.659Z,13.83
2018-03-30T16:31:44.817Z,12.90
2018-03-30T16:34:11.942Z,12.63
2018-03-30T16:36:39.098Z,12.73
2018-03-30T16:39:06.212Z,12.23
2018-03-30T16:41:33.381Z,11.53
2018-03-30T16:44:00.530Z,11.60
2018-03-30T16:46:27.682Z,11.90
2018-03-30T16:48:54.805Z,11.13
2018-03-30T16:51:22.007Z,11.30
2018-03-30T16:53:49.173Z,11.90
2018-03-30T16:56:16.303Z,18.60
2018-03-30T16:58:43.421Z,15.97
2018-03-30T17:01:10.579Z,20.00
2018-03-30T17:03:37.693Z,20.60
2018-03-30T17:06:04.804Z,29.97
2018-03-30T17:08:31.965Z,44.20
2018-03-30T17:10:59.858Z,21.13
2018-03-30T17:13:26.977Z,17.40
2018-03-30T17:15:54.134Z,12.60
2018-03-30T17:18:21.250Z,13.73
2018-03-30T17:20:48.376Z,14.57
2018-03-30T17:23:15.521Z,11.20
2018-03-30T17:25:42.648Z,11.07
2018-03-30T17:28:09.775Z,11.07
2018-03-30T17:30:36.938Z,12.40
2018-03-30T17:33:04.066Z,11.80
2018-03-30T17:35:31.197Z,12.77
2018-03-30T17:37:58.351Z,10.20
2018-03-30T17:40:25.473Z,11.50
2018-03-30T17:42:52.597Z,12.43
2018-03-30T17:45:19.747Z,12.40
2018-03-30T17:47:46.944Z,12.10
2018-03-30T17:50:14.056Z,13.67
2018-03-30T17:52:41.177Z,12.93
2018-03-30T17:55:08.339Z,12.83
2018-03-30T17:57:35.466Z,12.83
2018-03-30T18:00:02.615Z,11.60
2018-03-30T18:02:29.749Z,12.10
2018-03-30T18:04:56.922Z,12.30
2018-03-30T18:07:24.041Z,14.90
2018-03-30T18:09:51.158Z,13.83
2018-03-30T18:12:18.310Z,11.50
2018-03-30T18:14:45.432Z,10.33
2018-03-30T18:17:12.558Z,12.27
2018-03-30T18:19:39.775Z,10.77
2018-03-30T18:22:06.886Z,10.70
2018-03-30T18:24:34.011Z,10.13
2018-03-30T18:27:01.181Z,11.50
2018-03-30T18:29:28.334Z,10.57
2018-03-30T18:31:55.442Z,9.90
2018-03-30T18:34:22.582Z,9.37
2018-03-30T18:36:49.692Z,9.37
2018-03-30T18:39:16.862Z,9.53
2018-03-30T18:41:44.021Z,10.07
2018-03-30T18:44:11.141Z,10.50
2018-03-30T18:46:38.258Z,10.77
2018-03-30T18:49:05.397Z,10.27
2018-03-30T18:51:32.518Z,11.23
2018-03-30T18:53:59.685Z,11.30
2018-03-30T18:56:26.822Z,11.10
2018-03-30T18:58:54.005Z,11.50
2018-03-30T19:01:21.136Z,11.67
2018-03-30T19:03:48.254Z,11.87
2018-03-30T19:06:15.393Z,12.30
2018-03-30T19:08:42.509Z,12.90
2018-03-30T19:11:09.654Z,12.57
2018-03-30T19:13:36.773Z,13.20
2018-03-30T19:16:03.950Z,12.83
2018-03-30T19:18:31.070Z,12.97
2018-03-30T19:20:58.190Z,14.10
2018-03-30T19:23:25.346Z,13.93
2018-03-30T19:25:52.466Z,13.50
2018-03-30T19:28:19.597Z,13.00
2018-03-30T19:30:46.747Z,13.77
2018-03-30T19:33:13.917Z,13.57
2018-03-30T19:35:41.052Z,14.03
2018-03-30T19:38:08.194Z,14.13
2018-03-30T19:40:35.347Z,13.50
2018-03-30T19:43:02.502Z,13.80
2018-03-30T19:45:29.621Z,13.70
2018-03-30T19:47:56.732Z,14.30
2018-03-30T19:50:23.903Z,14.60
2018-03-30T19:52:51.037Z,13.60
2018-03-30T19:55:18.162Z,14.33
2018-03-30T19:57:45.334Z,13.23
2018-03-30T20:00:12.454Z,14.37
2018-03-30T20:02:39.564Z,14.13
2018-03-30T20:05:06.713Z,13.90
2018-03-30T20:07:33.830Z,13.27
2018-03-30T20:10:01.004Z,14.20
2018-03-30T20:12:28.117Z,12.80
2018-03-30T20:14:55.242Z,13.23
2018-03-30T20:17:22.459Z,13.60
2018-03-30T20:19:49.572Z,12.80
2018-03-30T20:22:16.717Z,13.53
2018-03-30T20:24:43.890Z,14.37
2018-03-30T20:27:11.018Z,13.60
2018-03-30T20:29:38.186Z,13.10
2018-03-30T20:32:05.338Z,13.47
2018-03-30T20:34:32.510Z,13.23
2018-03-30T20:36:59.638Z,13.50
2018-03-30T20:39:26.766Z,13.57
2018-03-30T20:41:53.913Z,13.13
2018-03-30T20:44:21.034Z,13.47
2018-03-30T20:46:48.165Z,13.30
2018-03-30T20:49:15.320Z,13.10
2018-03-30T20:51:42.441Z,13.07
2018-03-30T20:54:09.565Z,13.10
2018-03-30T20:56:36.742Z,12.87
2018-03-30T20:59:03.917Z,13.40
2018-03-30T21:01:31.044Z,12.90
2018-03-30T21:03:58.210Z,12.70
2018-03-30T21:06:25.347Z,12.17
2018-03-30T21:08:52.474Z,13.27
2018-03-30T21:11:19.650Z,13.53
2018-03-30T21:13:46.769Z,13.57
2018-03-30T21:16:13.938Z,12.73
2018-03-30T21:18:41.057Z,13.63
2018-03-30T21:21:08.189Z,13.80
2018-03-30T21:23:35.365Z,14.10
2018-03-30T21:26:02.486Z,13.13
2018-03-30T21:28:29.614Z,13.60
2018-03-30T21:30:56.778Z,13.20
2018-03-30T21:33:23.894Z,14.57
2018-03-30T21:35:51.066Z,14.47
2018-03-30T21:38:18.230Z,14.30
2018-03-30T21:40:45.364Z,13.63
2018-03-30T21:43:12.481Z,13.57
2018-03-30T21:45:39.625Z,14.40
2018-03-30T21:48:06.789Z,14.73
2018-03-30T21:50:33.912Z,14.60
2018-03-30T21:53:01.054Z,13.80
2018-03-30T21:55:28.209Z,15.17
2018-03-30T21:57:55.362Z,15.57
2018-03-30T22:00:22.482Z,14.93
2018-03-30T22:02:49.621Z,14.67
2018-03-30T22:05:16.750Z,14.93
2018-03-30T22:07:43.917Z,14.47
2018-03-30T22:10:11.045Z,14.80
2018-03-30T22:12:38.217Z,12.90
2018-03-30T22:15:05.338Z,14.40
2018-03-30T22:17:32.460Z,13.87
2018-03-30T22:19:59.641Z,15.20
2018-03-30T22:22:26.793Z,14.80
2018-03-30T22:24:53.944Z,15.07
2018-03-30T22:27:21.088Z,16.10
2018-03-30T22:29:48.242Z,15.00
2018-03-30T22:32:15.381Z,15.10
2018-03-30T22:34:42.496Z,14.53
2018-03-30T22:37:09.654Z,15.53
2018-03-30T22:39:36.775Z,16.30
2018-03-30T22:42:03.893Z,15.70
2018-03-30T22:44:31.041Z,16.67
2018-03-30T22:46:58.186Z,15.63
2018-03-30T22:49:25.361Z,15.03
2018-03-30T22:51:52.493Z,17.10
2018-03-30T22:54:19.613Z,15.50
2018-03-30T22:56:46.758Z,17.40
2018-03-30T22:59:13.940Z,15.97
2018-03-30T23:01:41.069Z,16.07
2018-03-30T23:04:08.194Z,16.07
2018-03-30T23:06:35.346Z,15.87
2018-03-30T23:09:02.514Z,16.17
2018-03-30T23:11:29.633Z,15.20
2018-03-30T23:13:56.749Z,16.10
2018-03-30T23:16:23.918Z,16.90
2018-03-30T23:18:51.073Z,15.03
2018-03-30T23:21:18.203Z,15.75
2018-03-30T23:23:45.318Z,15.87
2018-03-30T23:26:12.462Z,16.30
2018-03-30T23:28:39.955Z,14.90
2018-03-30T23:33:33.851Z,15.47
2018-03-30T23:36:01.007Z,14.70
2018-03-30T23:38:28.163Z,16.07
2018-03-30T23:40:55.317Z,15.70
2018-03-30T23:43:22.434Z,15.13
2018-03-30T23:45:49.605Z,15.43
2018-03-30T23:48:17.522Z,16.60
2018-03-30T23:50:44.656Z,16.53
2018-03-30T23:53:11.820Z,15.60
2018-03-30T23:55:38.942Z,16.00
2018-03-30T23:58:06.068Z,15.57
